createdAt,value
2022-09-10T00:00:45.150Z,17.15
2022-09-10T00:03:51.456Z,17.09
2022-09-10T00:06:55.335Z,17.10
2022-09-10T00:10:00.807Z,17.05
2022-09-10T00:13:03.665Z,17.08
2022-09-10T00:16:10.122Z,17.05
2022-09-10T00:19:14.879Z,16.94
2022-09-10T00:22:17.927Z,17.03
2022-09-10T00:25:20.718Z,17.00
2022-09-10T00:28:44.182Z,17.05
2022-09-10T00:31:46.983Z,17.00
2022-09-10T00:34:49.952Z,16.99
2022-09-10T00:37:52.761Z,16.99
2022-09-10T00:41:03.352Z,16.88
2022-09-10T00:44:37.485Z,16.79
2022-09-10T00:47:40.569Z,16.81
2022-09-10T00:50:47.056Z,16.81
2022-09-10T00:53:51.793Z,16.83
2022-09-10T00:56:57.263Z,16.83
2022-09-10T01:00:05.669Z,16.87
2022-09-10T01:03:11.354Z,16.95
2022-09-10T01:06:14.423Z,16.96
2022-09-10T01:09:18.338Z,16.94
2022-09-10T01:12:49.238Z,16.82
2022-09-10T01:16:03.693Z,16.88
2022-09-10T01:19:58.111Z,16.83
2022-09-10T01:23:23.243Z,16.83
2022-09-10T01:26:58.480Z,16.78
2022-09-10T01:30:06.235Z,16.88
2022-09-10T01:33:19.961Z,16.77
2022-09-10T01:36:28.417Z,16.66
2022-09-10T01:39:34.322Z,16.72
2022-09-10T01:42:41.911Z,16.79
2022-09-10T01:46:04.670Z,16.81
2022-09-10T01:49:10.641Z,16.76
2022-09-10T01:52:32.270Z,16.63
2022-09-10T01:56:15.479Z,16.65
2022-09-10T01:59:22.461Z,16.62
2022-09-10T02:02:31.045Z,16.49
2022-09-10T02:05:37.318Z,16.57
2022-09-10T02:08:43.633Z,16.55
2022-09-10T02:11:49.704Z,16.54
2022-09-10T02:14:56.773Z,16.40
2022-09-10T02:18:01.350Z,16.46
2022-09-10T02:21:04.282Z,16.44
2022-09-10T02:24:10.737Z,16.40
2022-09-10T02:27:13.407Z,16.45
2022-09-10T02:30:17.026Z,16.38
2022-09-10T02:33:19.784Z,16.41
2022-09-10T02:36:26.002Z,16.21
2022-09-10T02:39:29.537Z,16.16
2022-09-10T02:42:34.126Z,16.05
2022-09-10T02:45:38.534Z,16.05
2022-09-10T02:48:41.697Z,15.93
2022-09-10T02:51:44.772Z,16.10
2022-09-10T02:54:49.170Z,16.08
2022-09-10T02:57:52.607Z,16.09
2022-09-10T03:01:06.066Z,16.08
2022-09-10T03:04:09.700Z,16.15
2022-09-10T03:07:17.170Z,16.10
2022-09-10T03:10:20.525Z,16.07
2022-09-10T03:13:30.609Z,16.09
2022-09-10T03:16:33.429Z,16.07
2022-09-10T03:19:37.000Z,16.07
2022-09-10T03:22:39.649Z,15.94
2022-09-10T03:25:45.931Z,15.91
2022-09-10T03:28:50.637Z,15.93
2022-09-10T03:31:54.813Z,15.96
2022-09-10T03:35:00.007Z,15.95
2022-09-10T03:38:02.966Z,15.93
2022-09-10T03:41:05.785Z,15.97
2022-09-10T03:44:10.302Z,15.91
2022-09-10T03:47:14.219Z,15.93
2022-09-10T03:50:17.124Z,16.03
2022-09-10T03:53:20.177Z,15.93
2022-09-10T03:56:24.141Z,15.93
2022-09-10T03:59:26.999Z,15.95
2022-09-10T04:02:31.027Z,16.02
2022-09-10T04:05:34.045Z,16.04
2022-09-10T04:08:37.384Z,15.93
2022-09-10T04:11:42.677Z,15.91
2022-09-10T04:14:46.672Z,16.02
2022-09-10T04:17:55.093Z,15.99
2022-09-10T04:20:58.618Z,16.14
2022-09-10T04:24:02.086Z,15.91
2022-09-10T04:27:06.391Z,15.86
2022-09-10T04:30:10.517Z,15.95
2022-09-10T04:33:13.633Z,15.91
2022-09-10T04:36:17.253Z,15.94
2022-09-10T04:39:20.096Z,15.83
2022-09-10T04:42:24.209Z,15.85
2022-09-10T04:45:28.435Z,15.83
2022-09-10T04:48:33.605Z,15.95
2022-09-10T04:51:56.448Z,15.97
2022-09-10T04:55:00.308Z,15.94
2022-09-10T04:58:03.063Z,16.00
2022-09-10T05:01:07.059Z,16.10
2022-09-10T05:04:09.920Z,16.13
2022-09-10T05:07:13.580Z,16.18
2022-09-10T05:10:16.414Z,16.13
2022-09-10T05:13:19.601Z,16.15
2022-09-10T05:16:22.512Z,16.14
2022-09-10T05:19:29.061Z,16.08
2022-09-10T05:22:38.502Z,16.18
2022-09-10T05:25:44.540Z,16.17
2022-09-10T05:29:06.664Z,16.28
2022-09-10T05:32:09.887Z,16.32
2022-09-10T05:35:17.404Z,16.33
2022-09-10T05:38:21.349Z,16.36
2022-09-10T05:41:25.206Z,16.30
2022-09-10T05:44:29.523Z,16.45
2022-09-10T05:47:32.591Z,16.50
2022-09-10T05:50:35.847Z,16.55
2022-09-10T05:53:41.343Z,16.69
2022-09-10T05:56:48.797Z,16.52
2022-09-10T05:59:52.303Z,16.58
2022-09-10T06:02:57.357Z,16.68
2022-09-10T06:06:01.858Z,17.01
2022-09-10T06:09:04.841Z,16.95
2022-09-10T06:12:09.795Z,16.79
2022-09-10T06:15:13.156Z,16.93
2022-09-10T06:18:16.524Z,17.02
2022-09-10T06:21:20.213Z,16.98
2022-09-10T06:24:25.824Z,16.99
2022-09-10T06:27:29.848Z,17.19
2022-09-10T06:30:33.303Z,17.28
2022-09-10T06:33:36.354Z,17.28
2022-09-10T06:36:47.398Z,17.37
2022-09-10T06:39:51.090Z,17.30
2022-09-10T06:42:55.060Z,17.65
2022-09-10T06:45:59.882Z,17.17
2022-09-10T06:49:06.187Z,17.18
2022-09-10T06:52:11.573Z,17.26
2022-09-10T06:55:14.881Z,17.34
2022-09-10T06:58:23.450Z,17.27
2022-09-10T07:01:26.819Z,17.34
2022-09-10T07:04:29.817Z,17.49
2022-09-10T07:07:33.641Z,17.50
2022-09-10T07:10:39.110Z,17.63
2022-09-10T07:13:45.901Z,17.69
2022-09-10T07:16:51.555Z,17.99
2022-09-10T07:19:55.138Z,18.30
2022-09-10T07:22:59.730Z,18.29
2022-09-10T07:26:06.471Z,18.35
2022-09-10T07:29:33.275Z,18.33
2022-09-10T07:48:15.171Z,19.42
2022-09-10T07:51:19.278Z,19.42
2022-09-10T07:54:24.859Z,19.01
2022-09-10T07:57:31.283Z,19.15
2022-09-10T08:00:40.367Z,19.22
2022-09-10T08:03:56.327Z,19.54
2022-09-10T08:06:59.421Z,19.45
2022-09-10T08:10:11.298Z,19.84
2022-09-10T08:13:15.487Z,20.20
2022-09-10T08:16:44.196Z,20.60
2022-09-10T08:19:47.353Z,21.01
2022-09-10T08:22:50.817Z,20.88
2022-09-10T08:25:53.934Z,20.39
2022-09-10T08:28:57.917Z,19.90
2022-09-10T08:32:01.392Z,19.89
2022-09-10T08:35:05.915Z,19.70
2022-09-10T08:38:10.285Z,19.78
2022-09-10T08:41:19.438Z,19.61
2022-09-10T08:44:58.375Z,19.54
2022-09-10T08:48:08.785Z,19.62
2022-09-10T08:51:18.878Z,19.75
2022-09-10T08:55:00.043Z,20.14
2022-09-10T08:58:28.764Z,20.01
2022-09-10T09:01:42.677Z,19.99
2022-09-10T09:05:00.885Z,20.17
2022-09-10T09:08:06.291Z,20.42
2022-09-10T09:11:13.140Z,21.54
2022-09-10T09:14:42.714Z,22.44
2022-09-10T09:18:08.700Z,22.86
2022-09-10T09:21:36.118Z,22.18
2022-09-10T09:25:09.984Z,22.12
2022-09-10T09:28:55.148Z,21.85
2022-09-10T09:32:21.949Z,22.08
2022-09-10T09:35:34.820Z,22.01
2022-09-10T09:38:44.042Z,22.57
2022-09-10T09:42:07.872Z,23.27
2022-09-10T09:45:38.427Z,23.54
2022-09-10T09:48:42.239Z,23.71
2022-09-10T09:51:51.886Z,23.73
2022-09-10T09:55:14.415Z,24.12
2022-09-10T09:58:41.290Z,24.23
2022-09-10T10:01:46.006Z,24.21
2022-09-10T10:05:20.790Z,24.25
2022-09-10T10:08:34.302Z,24.23
2022-09-10T10:11:46.086Z,24.49
2022-09-10T10:14:51.537Z,24.26
2022-09-10T10:17:55.058Z,24.59
2022-09-10T10:21:34.893Z,25.11
2022-09-10T10:24:37.801Z,24.66
2022-09-10T10:27:45.379Z,24.60
2022-09-10T10:31:00.961Z,24.50
2022-09-10T10:34:19.597Z,23.62
2022-09-10T10:37:35.385Z,23.25
2022-09-10T10:41:07.547Z,22.84
2022-09-10T10:44:25.715Z,23.03
2022-09-10T10:48:16.399Z,23.51
2022-09-10T10:51:33.350Z,24.09
2022-09-10T10:54:44.115Z,24.43
2022-09-10T10:58:22.366Z,24.20
2022-09-10T11:01:30.030Z,24.00
2022-09-10T11:04:44.175Z,23.72
2022-09-10T11:07:47.443Z,24.18
2022-09-10T11:11:01.004Z,24.01
2022-09-10T11:14:23.268Z,24.24
2022-09-10T11:17:34.970Z,24.18
2022-09-10T11:21:05.235Z,24.58
2022-09-10T11:24:23.647Z,24.72
2022-09-10T11:27:31.458Z,24.83
2022-09-10T11:30:41.190Z,24.87
2022-09-10T11:34:12.292Z,24.78
2022-09-10T11:37:51.087Z,25.05
2022-09-10T11:41:22.327Z,24.90
2022-09-10T11:44:49.225Z,24.89
2022-09-10T11:48:35.409Z,24.97
2022-09-10T11:51:39.990Z,24.44
2022-09-10T11:54:43.936Z,23.69
2022-09-10T11:58:03.966Z,23.23
2022-09-10T12:01:37.460Z,23.09
2022-09-10T12:04:48.541Z,23.59
2022-09-10T12:08:06.482Z,24.15
2022-09-10T12:12:10.820Z,24.62
2022-09-10T12:15:37.297Z,24.26
2022-09-10T12:18:49.925Z,23.99
2022-09-10T12:22:01.786Z,24.36
2022-09-10T12:25:08.205Z,24.73
2022-09-10T12:28:53.685Z,24.72
2022-09-10T12:32:09.516Z,24.76
2022-09-10T12:35:31.007Z,24.37
2022-09-10T12:39:11.968Z,24.03
2022-09-10T12:42:30.915Z,23.90
2022-09-10T12:46:04.804Z,24.11
2022-09-10T12:49:13.539Z,24.41
2022-09-10T12:52:27.685Z,24.46
2022-09-10T12:55:49.308Z,24.66
2022-09-10T12:59:14.409Z,24.56
2022-09-10T13:02:26.385Z,24.68
2022-09-10T13:05:33.164Z,24.85
2022-09-10T13:08:44.285Z,24.70
2022-09-10T13:12:06.341Z,24.71
2022-09-10T13:15:21.515Z,24.82
2022-09-10T13:18:36.373Z,24.73
2022-09-10T13:21:45.189Z,24.28
2022-09-10T13:25:25.029Z,24.58
2022-09-10T13:28:31.315Z,24.42
2022-09-10T13:32:01.439Z,24.50
2022-09-10T13:35:50.001Z,24.35
2022-09-10T13:39:31.722Z,23.76
2022-09-10T13:42:49.681Z,24.11
2022-09-10T13:45:58.931Z,24.20
2022-09-10T13:49:16.667Z,24.00
2022-09-10T13:52:28.881Z,23.80
2022-09-10T13:55:32.184Z,23.61
2022-09-10T13:58:37.410Z,23.58
2022-09-10T14:01:52.371Z,23.79
2022-09-10T14:04:58.325Z,23.75
2022-09-10T14:08:10.927Z,23.74
2022-09-10T14:11:14.065Z,23.48
2022-09-10T14:14:40.385Z,23.12
2022-09-10T14:17:55.554Z,23.14
2022-09-10T14:20:59.787Z,23.04
2022-09-10T14:24:06.638Z,23.20
2022-09-10T14:27:22.835Z,23.08
2022-09-10T14:30:33.758Z,23.05
2022-09-10T14:34:24.202Z,23.04
2022-09-10T14:37:34.527Z,22.94
2022-09-10T14:40:38.818Z,23.01
2022-09-10T14:43:42.598Z,22.95
2022-09-10T14:46:46.911Z,22.98
2022-09-10T14:49:49.997Z,22.97
2022-09-10T14:52:52.816Z,22.74
2022-09-10T14:55:58.000Z,22.79
2022-09-10T14:59:03.628Z,22.90
2022-09-10T15:02:25.201Z,22.84
2022-09-10T15:05:27.949Z,22.64
2022-09-10T15:08:31.279Z,22.53
2022-09-10T15:11:35.756Z,22.51
2022-09-10T15:14:40.393Z,22.76
2022-09-10T15:17:43.398Z,22.86
2022-09-10T15:20:46.693Z,23.11
2022-09-10T15:23:49.409Z,23.12
2022-09-10T15:26:52.846Z,23.09
2022-09-10T15:29:58.013Z,22.85
2022-09-10T15:33:03.530Z,22.82
2022-09-10T15:36:06.876Z,22.82
2022-09-10T15:39:12.394Z,22.93
2022-09-10T15:42:15.592Z,22.79
2022-09-10T15:45:18.859Z,22.61
2022-09-10T15:48:25.671Z,22.40
2022-09-10T15:51:28.919Z,22.57
2022-09-10T15:54:33.443Z,22.52
2022-09-10T15:57:36.805Z,22.27
2022-09-10T16:00:42.943Z,22.43
2022-09-10T16:03:55.488Z,22.22
2022-09-10T16:06:59.035Z,22.09
2022-09-10T16:10:22.026Z,22.00
2022-09-10T16:13:46.886Z,21.65
2022-09-10T16:16:54.528Z,21.66
2022-09-10T16:20:00.162Z,21.57
2022-09-10T16:23:04.371Z,21.49
2022-09-10T16:26:09.599Z,21.37
2022-09-10T16:29:29.818Z,21.19
2022-09-10T16:32:32.630Z,21.11
2022-09-10T16:35:55.501Z,21.03
2022-09-10T16:39:02.869Z,20.98
2022-09-10T16:42:42.762Z,20.87
2022-09-10T16:45:52.026Z,20.74
2022-09-10T16:49:18.458Z,20.62
2022-09-10T16:52:42.075Z,20.43
2022-09-10T16:55:45.837Z,20.24
2022-09-10T16:58:48.856Z,20.06
2022-09-10T17:01:53.271Z,19.89
2022-09-10T17:04:56.692Z,19.73
2022-09-10T17:08:01.928Z,19.46
2022-09-10T17:11:04.806Z,19.51
2022-09-10T17:14:08.333Z,19.40
2022-09-10T17:17:15.721Z,19.43
2022-09-10T17:20:19.509Z,19.39
2022-09-10T17:23:42.173Z,19.56
2022-09-10T17:26:46.157Z,19.46
2022-09-10T17:29:51.912Z,19.51
2022-09-10T17:32:55.098Z,19.48
2022-09-10T17:36:18.120Z,19.48
2022-09-10T17:40:01.342Z,19.44
2022-09-10T17:43:04.299Z,19.37
2022-09-10T17:46:13.013Z,19.38
2022-09-10T17:49:35.834Z,19.43
2022-09-10T17:52:59.407Z,19.34
2022-09-10T17:56:23.653Z,19.33
2022-09-10T17:59:27.512Z,19.12
2022-09-10T18:02:31.040Z,18.99
2022-09-10T18:05:39.272Z,19.00
2022-09-10T18:19:48.514Z,18.72
2022-09-10T18:23:07.554Z,18.80
2022-09-10T18:26:33.244Z,18.61
2022-09-10T18:29:38.936Z,18.53
2022-09-10T18:32:41.752Z,18.39
2022-09-10T18:35:47.508Z,18.31
2022-09-10T18:38:50.635Z,18.25
2022-09-10T18:41:55.005Z,18.14
2022-09-10T18:45:00.423Z,18.16
2022-09-10T18:48:24.012Z,18.18
2022-09-10T18:51:47.232Z,18.15
2022-09-10T18:55:12.211Z,17.95
2022-09-10T18:59:01.147Z,17.83
2022-09-10T19:02:08.082Z,17.76
2022-09-10T19:05:12.561Z,17.83
2022-09-10T19:08:28.079Z,17.85
2022-09-10T19:11:34.300Z,17.74
2022-09-10T19:14:37.696Z,17.65
2022-09-10T19:17:40.364Z,17.73
2022-09-10T19:20:43.270Z,17.77
2022-09-10T19:23:46.671Z,17.74
2022-09-10T19:26:49.959Z,17.67
2022-09-10T19:29:53.374Z,17.76
2022-09-10T19:32:57.295Z,17.86
2022-09-10T19:36:16.002Z,17.77
2022-09-10T19:39:21.673Z,17.77
2022-09-10T19:42:24.553Z,17.75
2022-09-10T19:45:28.076Z,17.75
2022-09-10T19:48:30.965Z,17.72
2022-09-10T19:51:36.550Z,17.77
2022-09-10T19:54:39.981Z,17.58
2022-09-10T19:57:42.936Z,17.45
2022-09-10T20:00:48.874Z,17.44
2022-09-10T20:03:53.600Z,17.30
2022-09-10T20:06:56.232Z,17.22
2022-09-10T20:10:01.547Z,17.27
2022-09-10T20:13:04.964Z,17.20
2022-09-10T20:16:08.610Z,17.25
2022-09-10T20:19:13.802Z,17.15
2022-09-10T20:22:16.773Z,17.14
2022-09-10T20:25:19.462Z,17.24
2022-09-10T20:28:22.458Z,17.14
2022-09-10T20:31:27.451Z,17.08
2022-09-10T20:34:31.376Z,17.15
2022-09-10T20:37:34.504Z,17.17
2022-09-10T20:40:41.674Z,17.15
2022-09-10T20:43:44.495Z,17.02
2022-09-10T20:46:47.992Z,17.11
2022-09-10T20:49:50.667Z,17.01
2022-09-10T20:52:53.601Z,17.04
2022-09-10T20:56:07.915Z,17.00
2022-09-10T20:59:12.817Z,17.10
2022-09-10T21:02:15.672Z,17.01
2022-09-10T21:05:20.697Z,16.96
2022-09-10T21:08:31.384Z,16.89
2022-09-10T21:11:36.109Z,16.90
2022-09-10T21:14:39.194Z,16.92
2022-09-10T21:17:42.197Z,17.05
2022-09-10T21:20:45.218Z,16.93
2022-09-10T21:23:59.866Z,16.99
2022-09-10T21:27:03.666Z,16.97
2022-09-10T21:30:07.134Z,16.96
2022-09-10T21:33:09.791Z,16.96
2022-09-10T21:36:16.133Z,16.92
2022-09-10T21:39:18.812Z,16.89
2022-09-10T21:42:21.925Z,16.98
2022-09-10T21:45:26.338Z,16.90
2022-09-10T21:48:30.346Z,16.98
2022-09-10T21:51:33.257Z,16.95
2022-09-10T21:54:36.619Z,16.92
2022-09-10T21:57:39.404Z,16.91
2022-09-10T22:00:42.317Z,16.79
2022-09-10T22:03:47.268Z,16.83
2022-09-10T22:06:49.918Z,16.73
2022-09-10T22:09:53.007Z,16.72
2022-09-10T22:12:55.912Z,16.67
2022-09-10T22:15:59.683Z,16.54
2022-09-10T22:19:08.086Z,16.53
2022-09-10T22:22:11.500Z,16.49
2022-09-10T22:25:18.590Z,16.53
2022-09-10T22:28:22.699Z,16.49
2022-09-10T22:31:28.338Z,16.28
2022-09-10T22:34:31.299Z,16.35
2022-09-10T22:37:43.553Z,16.20
2022-09-10T22:40:47.237Z,16.07
2022-09-10T22:43:50.486Z,15.92
2022-09-10T22:46:54.007Z,15.93
2022-09-10T22:49:57.359Z,15.96
2022-09-10T22:53:01.353Z,15.96
2022-09-10T22:56:04.439Z,15.86
2022-09-10T22:59:11.279Z,15.82
2022-09-10T23:02:13.861Z,15.73
2022-09-10T23:05:17.235Z,15.51
2022-09-10T23:08:20.059Z,15.48
2022-09-10T23:11:31.023Z,15.40
2022-09-10T23:14:33.646Z,15.33
2022-09-10T23:17:45.066Z,15.21
2022-09-10T23:20:49.384Z,15.27
2022-09-10T23:23:58.047Z,15.37
2022-09-10T23:27:00.918Z,15.31
2022-09-10T23:30:05.097Z,15.30
2022-09-10T23:33:07.667Z,15.37
2022-09-10T23:36:13.461Z,15.42
2022-09-10T23:39:25.308Z,15.38
2022-09-10T23:42:29.081Z,15.41
2022-09-10T23:45:32.671Z,15.41
2022-09-10T23:48:36.637Z,15.42
2022-09-10T23:51:39.431Z,15.49
2022-09-10T23:54:42.326Z,15.65
2022-09-10T23:57:44.930Z,15.52
